sensor_id;sensor_type;location;lat;lon;timestamp;P1;durP1;ratioP1;P2;durP2;ratioP2
51800;SDS011;37855;53.204;6.568;2023-09-18T00:02:22;24.77;;;18.83;;
51800;SDS011;37855;53.204;6.568;2023-09-18T00:04:48;27.13;;;19.88;;
51800;SDS011;37855;53.204;6.568;2023-09-18T00:07:14;25.30;;;19.43;;
51800;SDS011;37855;53.204;6.568;2023-09-18T00:09:39;26.77;;;19.52;;
51800;SDS011;37855;53.204;6.568;2023-09-18T00:12:05;26.90;;;19.17;;
51800;SDS011;37855;53.204;6.568;2023-09-18T00:14:31;26.05;;;18.58;;
51800;SDS011;37855;53.204;6.568;2023-09-18T00:16:57;26.90;;;19.77;;
51800;SDS011;37855;53.204;6.568;2023-09-18T00:19:23;28.10;;;20.80;;
51800;SDS011;37855;53.204;6.568;2023-09-18T00:21:49;28.88;;;21.08;;
51800;SDS011;37855;53.204;6.568;2023-09-18T00:24:15;28.90;;;21.60;;
51800;SDS011;37855;53.204;6.568;2023-09-18T00:26:42;28.83;;;20.67;;
51800;SDS011;37855;53.204;6.568;2023-09-18T00:29:08;28.75;;;21.42;;
51800;SDS011;37855;53.204;6.568;2023-09-18T00:31:33;32.53;;;22.87;;
51800;SDS011;37855;53.204;6.568;2023-09-18T00:33:59;33.25;;;22.98;;
51800;SDS011;37855;53.204;6.568;2023-09-18T00:36:25;32.27;;;23.63;;
51800;SDS011;37855;53.204;6.568;2023-09-18T00:38:50;31.23;;;22.70;;
51800;SDS011;37855;53.204;6.568;2023-09-18T00:41:16;33.57;;;24.53;;
51800;SDS011;37855;53.204;6.568;2023-09-18T00:43:42;38.80;;;26.85;;
51800;SDS011;37855;53.204;6.568;2023-09-18T00:46:12;41.70;;;28.30;;
51800;SDS011;37855;53.204;6.568;2023-09-18T00:48:37;40.90;;;28.65;;
51800;SDS011;37855;53.204;6.568;2023-09-18T00:51:04;40.28;;;28.23;;
51800;SDS011;37855;53.204;6.568;2023-09-18T00:53:30;40.50;;;28.90;;
51800;SDS011;37855;53.204;6.568;2023-09-18T00:55:57;39.47;;;27.93;;
51800;SDS011;37855;53.204;6.568;2023-09-18T00:58:23;36.03;;;27.10;;
51800;SDS011;37855;53.204;6.568;2023-09-18T01:00:50;40.45;;;26.88;;
51800;SDS011;37855;53.204;6.568;2023-09-18T01:03:16;34.23;;;24.83;;
51800;SDS011;37855;53.204;6.568;2023-09-18T01:05:44;39.13;;;26.20;;
51800;SDS011;37855;53.204;6.568;2023-09-18T01:08:10;36.92;;;26.92;;
51800;SDS011;37855;53.204;6.568;2023-09-18T01:11:19;35.38;;;26.23;;
51800;SDS011;37855;53.204;6.568;2023-09-18T01:13:33;34.17;;;25.07;;
51800;SDS011;37855;53.204;6.568;2023-09-18T01:16:10;35.83;;;25.13;;
51800;SDS011;37855;53.204;6.568;2023-09-18T01:18:49;33.85;;;24.65;;
51800;SDS011;37855;53.204;6.568;2023-09-18T01:21:15;33.58;;;24.42;;
51800;SDS011;37855;53.204;6.568;2023-09-18T01:23:43;31.15;;;23.98;;
51800;SDS011;37855;53.204;6.568;2023-09-18T01:26:09;35.77;;;25.43;;
51800;SDS011;37855;53.204;6.568;2023-09-18T01:28:35;34.05;;;24.13;;
51800;SDS011;37855;53.204;6.568;2023-09-18T01:31:00;34.90;;;24.53;;
51800;SDS011;37855;53.204;6.568;2023-09-18T01:33:26;32.60;;;23.90;;
51800;SDS011;37855;53.204;6.568;2023-09-18T01:35:53;33.13;;;24.45;;
51800;SDS011;37855;53.204;6.568;2023-09-18T01:38:21;34.85;;;25.30;;
51800;SDS011;37855;53.204;6.568;2023-09-18T01:40:48;34.58;;;25.67;;
51800;SDS011;37855;53.204;6.568;2023-09-18T01:43:15;35.20;;;25.27;;
51800;SDS011;37855;53.204;6.568;2023-09-18T01:45:41;35.07;;;24.63;;
51800;SDS011;37855;53.204;6.568;2023-09-18T01:48:08;36.50;;;24.83;;
51800;SDS011;37855;53.204;6.568;2023-09-18T01:50:33;35.63;;;26.70;;
51800;SDS011;37855;53.204;6.568;2023-09-18T01:53:01;32.75;;;25.15;;
51800;SDS011;37855;53.204;6.568;2023-09-18T01:55:27;33.92;;;25.27;;
51800;SDS011;37855;53.204;6.568;2023-09-18T01:57:54;34.15;;;25.83;;
51800;SDS011;37855;53.204;6.568;2023-09-18T02:00:20;35.23;;;25.67;;
51800;SDS011;37855;53.204;6.568;2023-09-18T02:02:46;35.10;;;24.67;;
51800;SDS011;37855;53.204;6.568;2023-09-18T02:05:12;35.17;;;26.13;;
51800;SDS011;37855;53.204;6.568;2023-09-18T02:07:38;35.60;;;26.20;;
51800;SDS011;37855;53.204;6.568;2023-09-18T02:10:04;35.25;;;25.75;;
51800;SDS011;37855;53.204;6.568;2023-09-18T02:12:30;36.42;;;26.55;;
51800;SDS011;37855;53.204;6.568;2023-09-18T02:14:56;34.90;;;25.60;;
51800;SDS011;37855;53.204;6.568;2023-09-18T02:17:23;35.13;;;24.88;;
51800;SDS011;37855;53.204;6.568;2023-09-18T02:19:49;35.13;;;25.48;;
51800;SDS011;37855;53.204;6.568;2023-09-18T02:22:15;31.50;;;25.30;;
51800;SDS011;37855;53.204;6.568;2023-09-18T02:24:42;33.92;;;24.77;;
51800;SDS011;37855;53.204;6.568;2023-09-18T02:27:07;32.75;;;25.45;;
51800;SDS011;37855;53.204;6.568;2023-09-18T02:29:33;33.90;;;25.53;;
51800;SDS011;37855;53.204;6.568;2023-09-18T02:31:59;33.00;;;25.08;;
51800;SDS011;37855;53.204;6.568;2023-09-18T02:34:24;32.67;;;24.03;;
51800;SDS011;37855;53.204;6.568;2023-09-18T02:36:50;33.10;;;24.43;;
51800;SDS011;37855;53.204;6.568;2023-09-18T02:39:16;34.47;;;25.97;;
51800;SDS011;37855;53.204;6.568;2023-09-18T02:41:41;33.67;;;24.88;;
51800;SDS011;37855;53.204;6.568;2023-09-18T02:44:07;34.43;;;24.63;;
51800;SDS011;37855;53.204;6.568;2023-09-18T02:46:33;33.60;;;25.53;;
51800;SDS011;37855;53.204;6.568;2023-09-18T02:48:58;35.53;;;25.38;;
51800;SDS011;37855;53.204;6.568;2023-09-18T02:51:25;31.43;;;24.50;;
51800;SDS011;37855;53.204;6.568;2023-09-18T02:53:50;32.47;;;25.50;;
51800;SDS011;37855;53.204;6.568;2023-09-18T02:56:16;33.92;;;23.80;;
51800;SDS011;37855;53.204;6.568;2023-09-18T02:58:41;35.97;;;25.30;;
51800;SDS011;37855;53.204;6.568;2023-09-18T03:01:07;32.10;;;24.30;;
51800;SDS011;37855;53.204;6.568;2023-09-18T03:03:33;32.03;;;24.77;;
51800;SDS011;37855;53.204;6.568;2023-09-18T03:06:02;33.00;;;25.67;;
51800;SDS011;37855;53.204;6.568;2023-09-18T03:08:30;32.70;;;25.27;;
51800;SDS011;37855;53.204;6.568;2023-09-18T03:10:56;29.75;;;23.08;;
51800;SDS011;37855;53.204;6.568;2023-09-18T03:13:21;34.22;;;24.92;;
51800;SDS011;37855;53.204;6.568;2023-09-18T03:15:47;32.45;;;23.52;;
51800;SDS011;37855;53.204;6.568;2023-09-18T03:18:13;29.47;;;22.83;;
51800;SDS011;37855;53.204;6.568;2023-09-18T03:20:39;27.67;;;21.02;;
51800;SDS011;37855;53.204;6.568;2023-09-18T03:23:05;30.53;;;21.47;;
51800;SDS011;37855;53.204;6.568;2023-09-18T03:25:31;28.08;;;21.80;;
51800;SDS011;37855;53.204;6.568;2023-09-18T03:27:57;26.98;;;20.63;;
51800;SDS011;37855;53.204;6.568;2023-09-18T03:30:23;28.20;;;21.13;;
51800;SDS011;37855;53.204;6.568;2023-09-18T03:32:50;27.83;;;20.45;;
51800;SDS011;37855;53.204;6.568;2023-09-18T03:35:16;28.70;;;21.35;;
51800;SDS011;37855;53.204;6.568;2023-09-18T03:37:46;24.92;;;19.08;;
51800;SDS011;37855;53.204;6.568;2023-09-18T03:40:13;27.73;;;20.20;;
51800;SDS011;37855;53.204;6.568;2023-09-18T03:42:39;24.27;;;19.87;;
51800;SDS011;37855;53.204;6.568;2023-09-18T03:45:05;25.98;;;20.15;;
51800;SDS011;37855;53.204;6.568;2023-09-18T03:47:32;27.48;;;20.85;;
51800;SDS011;37855;53.204;6.568;2023-09-18T03:49:59;27.05;;;19.63;;
51800;SDS011;37855;53.204;6.568;2023-09-18T03:52:24;24.67;;;19.87;;
51800;SDS011;37855;53.204;6.568;2023-09-18T03:54:50;27.30;;;19.60;;
51800;SDS011;37855;53.204;6.568;2023-09-18T03:57:16;25.40;;;19.25;;
51800;SDS011;37855;53.204;6.568;2023-09-18T03:59:42;26.47;;;20.67;;
51800;SDS011;37855;53.204;6.568;2023-09-18T04:02:07;27.90;;;20.48;;
51800;SDS011;37855;53.204;6.568;2023-09-18T04:04:33;28.10;;;20.17;;
51800;SDS011;37855;53.204;6.568;2023-09-18T04:06:58;29.90;;;20.25;;
51800;SDS011;37855;53.204;6.568;2023-09-18T04:09:24;23.73;;;19.17;;
51800;SDS011;37855;53.204;6.568;2023-09-18T04:11:50;27.80;;;19.83;;
51800;SDS011;37855;53.204;6.568;2023-09-18T04:14:16;25.27;;;18.57;;
51800;SDS011;37855;53.204;6.568;2023-09-18T04:16:41;26.87;;;18.27;;
51800;SDS011;37855;53.204;6.568;2023-09-18T04:19:08;25.52;;;18.38;;
51800;SDS011;37855;53.204;6.568;2023-09-18T04:21:35;26.75;;;19.13;;
51800;SDS011;37855;53.204;6.568;2023-09-18T04:24:00;29.20;;;19.97;;
51800;SDS011;37855;53.204;6.568;2023-09-18T04:26:26;26.70;;;20.17;;
51800;SDS011;37855;53.204;6.568;2023-09-18T04:28:58;29.38;;;21.17;;
51800;SDS011;37855;53.204;6.568;2023-09-18T04:31:25;27.38;;;19.92;;
51800;SDS011;37855;53.204;6.568;2023-09-18T04:33:52;26.93;;;19.13;;
51800;SDS011;37855;53.204;6.568;2023-09-18T04:36:18;24.45;;;18.52;;
51800;SDS011;37855;53.204;6.568;2023-09-18T04:38:43;26.45;;;19.40;;
51800;SDS011;37855;53.204;6.568;2023-09-18T04:41:09;27.20;;;18.57;;
51800;SDS011;37855;53.204;6.568;2023-09-18T04:43:41;26.83;;;18.92;;
51800;SDS011;37855;53.204;6.568;2023-09-18T04:46:08;24.50;;;18.33;;
51800;SDS011;37855;53.204;6.568;2023-09-18T04:48:34;24.23;;;18.43;;
51800;SDS011;37855;53.204;6.568;2023-09-18T04:51:00;25.23;;;18.40;;
51800;SDS011;37855;53.204;6.568;2023-09-18T04:53:28;25.73;;;18.57;;
51800;SDS011;37855;53.204;6.568;2023-09-18T04:55:54;25.63;;;18.65;;
51800;SDS011;37855;53.204;6.568;2023-09-18T04:58:20;26.67;;;19.23;;
51800;SDS011;37855;53.204;6.568;2023-09-18T05:00:46;25.55;;;17.80;;
51800;SDS011;37855;53.204;6.568;2023-09-18T05:03:18;25.77;;;17.67;;
51800;SDS011;37855;53.204;6.568;2023-09-18T05:05:44;22.80;;;15.67;;
51800;SDS011;37855;53.204;6.568;2023-09-18T05:08:09;24.57;;;15.57;;
51800;SDS011;37855;53.204;6.568;2023-09-18T05:10:36;22.80;;;16.73;;
51800;SDS011;37855;53.204;6.568;2023-09-18T05:13:02;23.08;;;15.88;;
51800;SDS011;37855;53.204;6.568;2023-09-18T05:15:29;23.13;;;15.73;;
51800;SDS011;37855;53.204;6.568;2023-09-18T05:17:55;23.80;;;15.60;;
51800;SDS011;37855;53.204;6.568;2023-09-18T05:20:25;21.38;;;15.05;;
51800;SDS011;37855;53.204;6.568;2023-09-18T05:22:53;20.02;;;14.35;;
51800;SDS011;37855;53.204;6.568;2023-09-18T05:25:20;25.23;;;14.93;;
51800;SDS011;37855;53.204;6.568;2023-09-18T05:27:59;21.15;;;14.75;;
51800;SDS011;37855;53.204;6.568;2023-09-18T05:30:26;21.77;;;14.47;;
51800;SDS011;37855;53.204;6.568;2023-09-18T05:32:54;20.02;;;14.00;;
51800;SDS011;37855;53.204;6.568;2023-09-18T05:35:20;21.67;;;14.85;;
51800;SDS011;37855;53.204;6.568;2023-09-18T05:37:46;22.08;;;14.25;;
51800;SDS011;37855;53.204;6.568;2023-09-18T05:40:13;18.87;;;13.60;;
51800;SDS011;37855;53.204;6.568;2023-09-18T05:42:40;20.63;;;13.30;;
51800;SDS011;37855;53.204;6.568;2023-09-18T05:45:11;20.23;;;13.85;;
51800;SDS011;37855;53.204;6.568;2023-09-18T05:47:39;18.02;;;13.48;;
51800;SDS011;37855;53.204;6.568;2023-09-18T05:50:06;16.48;;;12.18;;
51800;SDS011;37855;53.204;6.568;2023-09-18T05:52:33;19.77;;;13.30;;
51800;SDS011;37855;53.204;6.568;2023-09-18T05:55:00;22.83;;;13.38;;
51800;SDS011;37855;53.204;6.568;2023-09-18T05:57:28;19.50;;;12.30;;
51800;SDS011;37855;53.204;6.568;2023-09-18T05:59:57;19.15;;;12.63;;
51800;SDS011;37855;53.204;6.568;2023-09-18T06:02:23;18.90;;;12.97;;
51800;SDS011;37855;53.204;6.568;2023-09-18T06:04:53;18.40;;;12.45;;
51800;SDS011;37855;53.204;6.568;2023-09-18T06:07:23;16.05;;;11.60;;
51800;SDS011;37855;53.204;6.568;2023-09-18T06:09:50;18.90;;;11.93;;
51800;SDS011;37855;53.204;6.568;2023-09-18T06:12:15;16.67;;;11.53;;
51800;SDS011;37855;53.204;6.568;2023-09-18T06:14:41;16.73;;;10.85;;
51800;SDS011;37855;53.204;6.568;2023-09-18T06:17:07;21.83;;;11.67;;
51800;SDS011;37855;53.204;6.568;2023-09-18T06:19:35;20.42;;;11.30;;
51800;SDS011;37855;53.204;6.568;2023-09-18T06:22:01;18.48;;;10.50;;
51800;SDS011;37855;53.204;6.568;2023-09-18T06:24:30;19.98;;;11.52;;
51800;SDS011;37855;53.204;6.568;2023-09-18T06:26:55;17.30;;;10.88;;
51800;SDS011;37855;53.204;6.568;2023-09-18T06:29:21;17.30;;;10.73;;
51800;SDS011;37855;53.204;6.568;2023-09-18T06:31:47;16.15;;;10.93;;
51800;SDS011;37855;53.204;6.568;2023-09-18T06:34:12;14.87;;;10.33;;
51800;SDS011;37855;53.204;6.568;2023-09-18T06:36:38;16.20;;;10.95;;
51800;SDS011;37855;53.204;6.568;2023-09-18T06:39:04;16.30;;;10.23;;
51800;SDS011;37855;53.204;6.568;2023-09-18T06:41:29;17.55;;;10.13;;
51800;SDS011;37855;53.204;6.568;2023-09-18T06:43:55;16.47;;;9.63;;
51800;SDS011;37855;53.204;6.568;2023-09-18T06:46:22;14.18;;;8.63;;
51800;SDS011;37855;53.204;6.568;2023-09-18T06:48:47;12.00;;;8.95;;
51800;SDS011;37855;53.204;6.568;2023-09-18T06:51:16;15.33;;;8.97;;
51800;SDS011;37855;53.204;6.568;2023-09-18T06:53:43;13.55;;;7.75;;
51800;SDS011;37855;53.204;6.568;2023-09-18T06:56:09;17.20;;;8.98;;
51800;SDS011;37855;53.204;6.568;2023-09-18T06:58:35;14.13;;;8.77;;
51800;SDS011;37855;53.204;6.568;2023-09-18T07:01:01;15.63;;;8.95;;
51800;SDS011;37855;53.204;6.568;2023-09-18T07:03:26;22.85;;;9.23;;
51800;SDS011;37855;53.204;6.568;2023-09-18T07:05:52;20.20;;;10.07;;
51800;SDS011;37855;53.204;6.568;2023-09-18T07:08:18;17.23;;;9.98;;
51800;SDS011;37855;53.204;6.568;2023-09-18T07:10:49;16.58;;;10.00;;
51800;SDS011;37855;53.204;6.568;2023-09-18T07:13:15;17.58;;;10.10;;
51800;SDS011;37855;53.204;6.568;2023-09-18T07:15:41;18.60;;;10.30;;
51800;SDS011;37855;53.204;6.568;2023-09-18T07:18:07;22.13;;;10.73;;
51800;SDS011;37855;53.204;6.568;2023-09-18T07:20:34;19.13;;;10.98;;
51800;SDS011;37855;53.204;6.568;2023-09-18T07:23:01;20.50;;;11.73;;
51800;SDS011;37855;53.204;6.568;2023-09-18T07:25:27;18.17;;;10.77;;
51800;SDS011;37855;53.204;6.568;2023-09-18T07:27:52;17.10;;;10.60;;
51800;SDS011;37855;53.204;6.568;2023-09-18T07:30:19;15.93;;;9.98;;
51800;SDS011;37855;53.204;6.568;2023-09-18T07:32:47;16.95;;;10.95;;
51800;SDS011;37855;53.204;6.568;2023-09-18T07:35:13;24.50;;;11.40;;
51800;SDS011;37855;53.204;6.568;2023-09-18T07:37:39;24.25;;;12.00;;
51800;SDS011;37855;53.204;6.568;2023-09-18T07:40:06;19.87;;;12.53;;
51800;SDS011;37855;53.204;6.568;2023-09-18T07:42:35;20.27;;;11.75;;
51800;SDS011;37855;53.204;6.568;2023-09-18T07:45:01;22.27;;;13.55;;
51800;SDS011;37855;53.204;6.568;2023-09-18T07:47:27;20.00;;;12.70;;
51800;SDS011;37855;53.204;6.568;2023-09-18T07:49:53;20.97;;;13.43;;
51800;SDS011;37855;53.204;6.568;2023-09-18T07:52:19;25.88;;;13.73;;
51800;SDS011;37855;53.204;6.568;2023-09-18T07:54:45;22.77;;;13.93;;
51800;SDS011;37855;53.204;6.568;2023-09-18T07:57:11;24.63;;;14.57;;
51800;SDS011;37855;53.204;6.568;2023-09-18T07:59:36;21.77;;;13.85;;
51800;SDS011;37855;53.204;6.568;2023-09-18T08:02:04;19.00;;;13.60;;
51800;SDS011;37855;53.204;6.568;2023-09-18T08:04:33;23.90;;;13.98;;
51800;SDS011;37855;53.204;6.568;2023-09-18T08:06:59;24.00;;;14.55;;
51800;SDS011;37855;53.204;6.568;2023-09-18T08:09:25;19.77;;;13.40;;
51800;SDS011;37855;53.204;6.568;2023-09-18T08:11:55;20.83;;;13.50;;
51800;SDS011;37855;53.204;6.568;2023-09-18T08:14:21;20.07;;;13.60;;
51800;SDS011;37855;53.204;6.568;2023-09-18T08:16:47;21.42;;;13.63;;
51800;SDS011;37855;53.204;6.568;2023-09-18T08:19:16;22.87;;;13.63;;
51800;SDS011;37855;53.204;6.568;2023-09-18T08:21:42;19.02;;;12.82;;
51800;SDS011;37855;53.204;6.568;2023-09-18T08:24:08;21.05;;;13.43;;
51800;SDS011;37855;53.204;6.568;2023-09-18T08:26:33;18.10;;;12.87;;
51800;SDS011;37855;53.204;6.568;2023-09-18T08:28:59;20.98;;;12.45;;
51800;SDS011;37855;53.204;6.568;2023-09-18T08:31:25;18.40;;;12.17;;
51800;SDS011;37855;53.204;6.568;2023-09-18T08:33:52;20.25;;;12.10;;
51800;SDS011;37855;53.204;6.568;2023-09-18T08:36:18;20.27;;;11.52;;
51800;SDS011;37855;53.204;6.568;2023-09-18T08:38:44;20.93;;;11.57;;
51800;SDS011;37855;53.204;6.568;2023-09-18T08:41:11;16.52;;;11.77;;
51800;SDS011;37855;53.204;6.568;2023-09-18T08:43:39;17.33;;;11.40;;
51800;SDS011;37855;53.204;6.568;2023-09-18T08:46:16;16.40;;;10.70;;
51800;SDS011;37855;53.204;6.568;2023-09-18T08:48:57;21.35;;;12.00;;
51800;SDS011;37855;53.204;6.568;2023-09-18T08:54:19;16.60;;;11.00;;
51800;SDS011;37855;53.204;6.568;2023-09-18T08:56:46;19.55;;;11.80;;
51800;SDS011;37855;53.204;6.568;2023-09-18T08:59:12;18.00;;;12.27;;
51800;SDS011;37855;53.204;6.568;2023-09-18T09:01:39;17.27;;;11.07;;
51800;SDS011;37855;53.204;6.568;2023-09-18T09:04:10;19.33;;;12.80;;
51800;SDS011;37855;53.204;6.568;2023-09-18T09:06:36;18.00;;;11.75;;
51800;SDS011;37855;53.204;6.568;2023-09-18T09:09:05;16.53;;;11.20;;
51800;SDS011;37855;53.204;6.568;2023-09-18T09:11:33;17.40;;;12.00;;
51800;SDS011;37855;53.204;6.568;2023-09-18T09:14:12;18.90;;;11.30;;
51800;SDS011;37855;53.204;6.568;2023-09-18T09:16:48;18.00;;;12.07;;
51800;SDS011;37855;53.204;6.568;2023-09-18T09:19:15;20.70;;;13.07;;
51800;SDS011;37855;53.204;6.568;2023-09-18T09:21:42;15.90;;;11.37;;
51800;SDS011;37855;53.204;6.568;2023-09-18T09:24:09;20.33;;;12.02;;
51800;SDS011;37855;53.204;6.568;2023-09-18T09:26:41;16.55;;;10.45;;
51800;SDS011;37855;53.204;6.568;2023-09-18T09:29:17;18.02;;;10.20;;
51800;SDS011;37855;53.204;6.568;2023-09-18T09:31:45;17.48;;;10.95;;
51800;SDS011;37855;53.204;6.568;2023-09-18T09:34:11;20.47;;;11.07;;
51800;SDS011;37855;53.204;6.568;2023-09-18T09:36:50;16.35;;;10.23;;
51800;SDS011;37855;53.204;6.568;2023-09-18T09:39:19;17.40;;;11.02;;
51800;SDS011;37855;53.204;6.568;2023-09-18T09:41:47;16.52;;;10.07;;
51800;SDS011;37855;53.204;6.568;2023-09-18T09:44:14;17.55;;;10.48;;
51800;SDS011;37855;53.204;6.568;2023-09-18T09:46:47;13.87;;;10.77;;
51800;SDS011;37855;53.204;6.568;2023-09-18T09:49:14;17.85;;;10.88;;
51800;SDS011;37855;53.204;6.568;2023-09-18T09:51:41;18.75;;;11.48;;
51800;SDS011;37855;53.204;6.568;2023-09-18T09:54:07;16.35;;;11.20;;
51800;SDS011;37855;53.204;6.568;2023-09-18T09:56:48;15.53;;;9.70;;
51800;SDS011;37855;53.204;6.568;2023-09-18T09:59:19;17.58;;;10.70;;
51800;SDS011;37855;53.204;6.568;2023-09-18T10:01:48;17.75;;;11.65;;
51800;SDS011;37855;53.204;6.568;2023-09-18T10:04:16;16.30;;;10.73;;
51800;SDS011;37855;53.204;6.568;2023-09-18T10:06:43;14.30;;;10.88;;
51800;SDS011;37855;53.204;6.568;2023-09-18T10:09:12;17.57;;;12.00;;
51800;SDS011;37855;53.204;6.568;2023-09-18T10:11:41;18.65;;;12.48;;
51800;SDS011;37855;53.204;6.568;2023-09-18T10:14:16;18.88;;;13.18;;
51800;SDS011;37855;53.204;6.568;2023-09-18T10:16:49;19.08;;;12.77;;
51800;SDS011;37855;53.204;6.568;2023-09-18T10:19:21;20.08;;;13.55;;
51800;SDS011;37855;53.204;6.568;2023-09-18T10:22:11;21.00;;;13.00;;
51800;SDS011;37855;53.204;6.568;2023-09-18T10:24:47;19.13;;;14.02;;
51800;SDS011;37855;53.204;6.568;2023-09-18T10:27:18;19.33;;;14.43;;
51800;SDS011;37855;53.204;6.568;2023-09-18T10:29:51;20.20;;;13.63;;
51800;SDS011;37855;53.204;6.568;2023-09-18T10:32:39;17.95;;;12.93;;
51800;SDS011;37855;53.204;6.568;2023-09-18T10:35:06;19.10;;;14.00;;
51800;SDS011;37855;53.204;6.568;2023-09-18T10:37:37;16.60;;;13.75;;
51800;SDS011;37855;53.204;6.568;2023-09-18T10:40:06;18.60;;;14.30;;
51800;SDS011;37855;53.204;6.568;2023-09-18T10:42:40;19.42;;;13.88;;
51800;SDS011;37855;53.204;6.568;2023-09-18T10:45:10;14.20;;;9.77;;
51800;SDS011;37855;53.204;6.568;2023-09-18T10:47:41;16.67;;;13.07;;
51800;SDS011;37855;53.204;6.568;2023-09-18T10:50:10;12.63;;;9.45;;
51800;SDS011;37855;53.204;6.568;2023-09-18T10:52:38;13.50;;;8.35;;
51800;SDS011;37855;53.204;6.568;2023-09-18T10:55:11;12.38;;;8.93;;
51800;SDS011;37855;53.204;6.568;2023-09-18T10:57:48;12.00;;;9.45;;
51800;SDS011;37855;53.204;6.568;2023-09-18T11:00:18;10.43;;;7.20;;
51800;SDS011;37855;53.204;6.568;2023-09-18T11:03:10;12.52;;;8.15;;
51800;SDS011;37855;53.204;6.568;2023-09-18T11:05:36;10.40;;;7.30;;
51800;SDS011;37855;53.204;6.568;2023-09-18T11:08:24;11.70;;;7.13;;
51800;SDS011;37855;53.204;6.568;2023-09-18T11:10:55;9.90;;;6.65;;
51800;SDS011;37855;53.204;6.568;2023-09-18T11:19:05;10.93;;;6.50;;
51800;SDS011;37855;53.204;6.568;2023-09-18T11:21:34;8.43;;;5.97;;
51800;SDS011;37855;53.204;6.568;2023-09-18T11:24:07;9.82;;;5.63;;
51800;SDS011;37855;53.204;6.568;2023-09-18T11:26:41;9.43;;;6.22;;
51800;SDS011;37855;53.204;6.568;2023-09-18T11:29:08;7.78;;;5.80;;
51800;SDS011;37855;53.204;6.568;2023-09-18T11:31:46;11.45;;;5.78;;
51800;SDS011;37855;53.204;6.568;2023-09-18T11:34:21;8.47;;;5.00;;
51800;SDS011;37855;53.204;6.568;2023-09-18T11:36:56;7.35;;;5.10;;
51800;SDS011;37855;53.204;6.568;2023-09-18T11:42:06;9.48;;;5.00;;
51800;SDS011;37855;53.204;6.568;2023-09-18T11:44:36;7.35;;;4.85;;
51800;SDS011;37855;53.204;6.568;2023-09-18T11:47:08;11.30;;;5.30;;
51800;SDS011;37855;53.204;6.568;2023-09-18T11:49:53;9.20;;;4.75;;
51800;SDS011;37855;53.204;6.568;2023-09-18T11:52:23;11.98;;;5.20;;
51800;SDS011;37855;53.204;6.568;2023-09-18T11:54:51;9.70;;;5.00;;
51800;SDS011;37855;53.204;6.568;2023-09-18T11:57:19;7.95;;;4.55;;
51800;SDS011;37855;53.204;6.568;2023-09-18T11:59:45;7.23;;;4.83;;
51800;SDS011;37855;53.204;6.568;2023-09-18T12:02:27;10.65;;;4.78;;
51800;SDS011;37855;53.204;6.568;2023-09-18T12:05:04;7.53;;;4.78;;
51800;SDS011;37855;53.204;6.568;2023-09-18T12:07:39;7.22;;;4.85;;
51800;SDS011;37855;53.204;6.568;2023-09-18T12:10:09;8.65;;;4.28;;
51800;SDS011;37855;53.204;6.568;2023-09-18T12:12:36;10.80;;;5.20;;
51800;SDS011;37855;53.204;6.568;2023-09-18T12:15:02;8.40;;;4.32;;
51800;SDS011;37855;53.204;6.568;2023-09-18T12:17:28;7.70;;;4.22;;
51800;SDS011;37855;53.204;6.568;2023-09-18T12:19:54;8.53;;;4.80;;
51800;SDS011;37855;53.204;6.568;2023-09-18T12:22:24;9.27;;;4.65;;
51800;SDS011;37855;53.204;6.568;2023-09-18T12:24:55;12.48;;;4.40;;
51800;SDS011;37855;53.204;6.568;2023-09-18T12:27:37;10.10;;;3.92;;
51800;SDS011;37855;53.204;6.568;2023-09-18T12:30:04;8.10;;;4.67;;
51800;SDS011;37855;53.204;6.568;2023-09-18T12:32:31;8.10;;;4.20;;
51800;SDS011;37855;53.204;6.568;2023-09-18T12:34:57;9.88;;;4.03;;
51800;SDS011;37855;53.204;6.568;2023-09-18T12:37:23;9.10;;;4.38;;
51800;SDS011;37855;53.204;6.568;2023-09-18T12:39:50;10.45;;;3.97;;
51800;SDS011;37855;53.204;6.568;2023-09-18T12:42:20;10.30;;;4.60;;
51800;SDS011;37855;53.204;6.568;2023-09-18T12:44:49;6.57;;;4.18;;
51800;SDS011;37855;53.204;6.568;2023-09-18T12:47:15;7.50;;;4.10;;
51800;SDS011;37855;53.204;6.568;2023-09-18T12:49:41;6.50;;;4.15;;
51800;SDS011;37855;53.204;6.568;2023-09-18T12:52:07;9.70;;;4.63;;
51800;SDS011;37855;53.204;6.568;2023-09-18T12:54:51;9.23;;;4.35;;
51800;SDS011;37855;53.204;6.568;2023-09-18T12:57:21;8.35;;;4.40;;
51800;SDS011;37855;53.204;6.568;2023-09-18T12:59:47;10.83;;;4.10;;
51800;SDS011;37855;53.204;6.568;2023-09-18T13:02:16;10.10;;;4.03;;
51800;SDS011;37855;53.204;6.568;2023-09-18T13:04:50;7.40;;;4.50;;
51800;SDS011;37855;53.204;6.568;2023-09-18T13:07:20;10.38;;;4.45;;
51800;SDS011;37855;53.204;6.568;2023-09-18T13:09:59;8.10;;;4.10;;
51800;SDS011;37855;53.204;6.568;2023-09-18T13:12:47;8.35;;;4.13;;
51800;SDS011;37855;53.204;6.568;2023-09-18T13:15:23;9.95;;;3.97;;
51800;SDS011;37855;53.204;6.568;2023-09-18T13:17:52;6.35;;;3.72;;
51800;SDS011;37855;53.204;6.568;2023-09-18T13:20:22;8.38;;;3.83;;
51800;SDS011;37855;53.204;6.568;2023-09-18T13:22:51;9.53;;;4.20;;
51800;SDS011;37855;53.204;6.568;2023-09-18T13:25:22;9.93;;;3.85;;
51800;SDS011;37855;53.204;6.568;2023-09-18T13:27:54;6.88;;;4.45;;
51800;SDS011;37855;53.204;6.568;2023-09-18T13:30:23;7.90;;;4.13;;
51800;SDS011;37855;53.204;6.568;2023-09-18T13:33:00;6.80;;;3.78;;
51800;SDS011;37855;53.204;6.568;2023-09-18T13:35:31;13.10;;;4.07;;
51800;SDS011;37855;53.204;6.568;2023-09-18T13:37:57;8.70;;;4.13;;
51800;SDS011;37855;53.204;6.568;2023-09-18T13:40:23;8.63;;;4.00;;
51800;SDS011;37855;53.204;6.568;2023-09-18T13:42:50;8.00;;;3.63;;
51800;SDS011;37855;53.204;6.568;2023-09-18T13:45:16;11.67;;;3.60;;
51800;SDS011;37855;53.204;6.568;2023-09-18T13:47:42;8.95;;;3.55;;
51800;SDS011;37855;53.204;6.568;2023-09-18T13:50:08;10.10;;;3.60;;
51800;SDS011;37855;53.204;6.568;2023-09-18T13:52:35;12.30;;;3.67;;
51800;SDS011;37855;53.204;6.568;2023-09-18T13:55:04;8.27;;;3.38;;
51800;SDS011;37855;53.204;6.568;2023-09-18T13:57:33;7.55;;;3.58;;
51800;SDS011;37855;53.204;6.568;2023-09-18T14:00:01;9.45;;;3.90;;
51800;SDS011;37855;53.204;6.568;2023-09-18T14:02:32;8.00;;;3.90;;
51800;SDS011;37855;53.204;6.568;2023-09-18T14:04:58;7.17;;;3.57;;
51800;SDS011;37855;53.204;6.568;2023-09-18T14:07:24;7.57;;;3.50;;
51800;SDS011;37855;53.204;6.568;2023-09-18T14:09:50;8.30;;;3.90;;
51800;SDS011;37855;53.204;6.568;2023-09-18T14:12:15;9.27;;;4.03;;
51800;SDS011;37855;53.204;6.568;2023-09-18T14:14:42;8.50;;;3.58;;
51800;SDS011;37855;53.204;6.568;2023-09-18T14:17:08;7.95;;;3.80;;
51800;SDS011;37855;53.204;6.568;2023-09-18T14:19:34;6.90;;;3.58;;
51800;SDS011;37855;53.204;6.568;2023-09-18T14:22:00;6.63;;;3.50;;
51800;SDS011;37855;53.204;6.568;2023-09-18T14:24:29;8.23;;;4.07;;
51800;SDS011;37855;53.204;6.568;2023-09-18T14:26:55;11.05;;;3.80;;
51800;SDS011;37855;53.204;6.568;2023-09-18T14:29:21;8.90;;;3.60;;
51800;SDS011;37855;53.204;6.568;2023-09-18T14:31:47;8.87;;;4.10;;
51800;SDS011;37855;53.204;6.568;2023-09-18T14:34:13;7.60;;;4.07;;
51800;SDS011;37855;53.204;6.568;2023-09-18T14:36:39;7.53;;;3.70;;
51800;SDS011;37855;53.204;6.568;2023-09-18T14:39:05;7.65;;;3.70;;
51800;SDS011;37855;53.204;6.568;2023-09-18T14:41:37;6.35;;;3.25;;
51800;SDS011;37855;53.204;6.568;2023-09-18T14:44:04;9.10;;;3.75;;
51800;SDS011;37855;53.204;6.568;2023-09-18T14:46:33;6.88;;;3.80;;